Time;durP1;ratioP1;P1;durP2;ratioP2;P2;SDS_P1;SDS_P2;PMS_P1;PMS_P2;Temp;Humidity;BMP_temperature;BMP_pressure;BME280_temperature;BME280_humidity;BME280_pressure;Samples;Min_cycle;Max_cycle;Signal;HPM_P1;HPM_P2
2023/12/03 00:00:15;;;;;;;1.02;0.30;;;31.60;48.90;;;;;;5053692;28;20508;-70
2023/12/03 00:02:43;;;;;;;0.35;0.20;;;31.70;48.20;;;;;;5055868;28;20377;-70
2023/12/03 00:05:12;;;;;;;1.67;0.40;;;31.60;50.00;;;;;;5054552;28;20025;-70
2023/12/03 00:07:40;;;;;;;1.83;0.40;;;31.50;48.30;;;;;;5048614;28;20059;-71
2023/12/03 00:10:08;;;;;;;5.60;0.93;;;31.70;49.80;;;;;;5055718;28;20095;-70
2023/12/03 00:12:38;;;;;;;9.50;1.17;;;31.70;50.00;;;;;;5056606;28;20480;-70
2023/12/03 00:15:06;;;;;;;1.17;0.32;;;32.00;48.80;;;;;;5048205;28;20500;-69
2023/12/03 00:17:33;;;;;;;0.77;0.30;;;32.10;48.10;;;;;;5053500;28;20377;-70
2023/12/03 00:20:01;;;;;;;1.13;0.30;;;32.10;48.30;;;;;;5050699;28;20042;-71
2023/12/03 00:22:28;;;;;;;1.10;0.40;;;32.00;50.40;;;;;;5045117;28;20104;-72
2023/12/03 00:24:55;;;;;;;1.08;0.35;;;32.00;46.70;;;;;;5050680;28;20405;-72
2023/12/03 00:27:23;;;;;;;4.75;0.75;;;31.70;50.00;;;;;;5048339;28;20029;-71
2023/12/03 00:29:50;;;;;;;1.33;0.43;;;32.20;50.30;;;;;;5045787;28;20029;-72
2023/12/03 00:32:18;;;;;;;2.08;0.30;;;32.60;48.70;;;;;;5047008;28;20466;-71
2023/12/03 00:34:45;;;;;;;1.85;0.43;;;32.60;47.30;;;;;;5041270;28;20114;-72
2023/12/03 00:37:12;;;;;;;0.90;0.20;;;32.70;47.60;;;;;;5045712;28;20025;-72
2023/12/03 00:39:40;;;;;;;1.60;0.68;;;32.70;47.60;;;;;;5042297;28;20126;-71
2023/12/03 00:42:07;;;;;;;1.95;0.47;;;32.90;46.20;;;;;;5042200;28;20025;-73
2023/12/03 00:44:35;;;;;;;0.75;0.22;;;33.10;44.60;;;;;;5050631;28;20081;-70
2023/12/03 00:47:02;;;;;;;0.82;0.30;;;33.10;45.10;;;;;;5051737;28;20101;-71
2023/12/03 00:49:29;;;;;;;1.65;0.20;;;33.30;46.70;;;;;;5049012;28;20028;-71
2023/12/03 00:51:57;;;;;;;3.53;0.60;;;33.70;45.50;;;;;;5053168;28;20060;-71
2023/12/03 00:54:24;;;;;;;2.83;0.93;;;33.60;43.90;;;;;;5049438;28;20153;-70
2023/12/03 00:56:51;;;;;;;1.00;0.40;;;33.70;44.50;;;;;;5055664;28;20024;-70
2023/12/03 00:59:19;;;;;;;2.55;0.43;;;32.90;44.70;;;;;;5062146;28;20049;-71
2023/12/03 01:01:46;;;;;;;1.45;0.40;;;31.90;44.40;;;;;;5050926;28;20017;-71
2023/12/03 01:04:13;;;;;;;1.08;0.38;;;31.40;46.00;;;;;;5056178;28;20454;-71
2023/12/03 01:06:41;;;;;;;4.60;0.60;;;30.90;47.10;;;;;;5057873;28;20044;-70
2023/12/03 01:09:09;;;;;;;1.52;0.50;;;31.00;45.80;;;;;;5055686;28;20369;-71
2023/12/03 01:11:43;;;;;;;1.63;0.60;;;31.30;44.60;;;;;;5055907;28;20479;-69
2023/12/03 01:14:11;;;;;;;3.40;0.50;;;32.00;45.00;;;;;;5055343;28;20466;-70
2023/12/03 01:16:38;;;;;;;4.75;0.60;;;32.70;47.30;;;;;;5053182;28;20162;-71
2023/12/03 01:19:05;;;;;;;1.13;0.50;;;32.30;45.80;;;;;;5051739;28;20041;-71
2023/12/03 01:21:33;;;;;;;3.95;0.45;;;31.70;45.80;;;;;;5058087;28;20366;-71
2023/12/03 01:24:00;;;;;;;1.35;0.30;;;31.30;46.60;;;;;;5052832;28;20032;-71
2023/12/03 01:26:27;;;;;;;1.35;0.50;;;32.00;49.20;;;;;;5056133;28;20401;-70
2023/12/03 01:28:56;;;;;;;2.33;0.40;;;32.70;46.80;;;;;;5056455;28;21534;-70
2023/12/03 01:31:23;;;;;;;1.73;0.40;;;33.00;44.80;;;;;;5054903;28;20101;-71
2023/12/03 01:33:50;;;;;;;1.67;0.43;;;33.50;44.70;;;;;;5057408;28;20021;-71
2023/12/03 01:36:18;;;;;;;1.98;0.47;;;33.70;42.40;;;;;;5055725;28;20032;-71
2023/12/03 01:38:45;;;;;;;4.93;0.50;;;33.30;42.50;;;;;;5054085;28;20041;-71
2023/12/03 01:41:12;;;;;;;6.70;1.02;;;33.40;44.40;;;;;;5054006;28;20480;-71
2023/12/03 01:43:50;;;;;;;0.80;0.50;;;33.70;44.80;;;;;;5054223;28;20070;-72
2023/12/03 01:46:19;;;;;;;1.90;0.60;;;34.10;44.40;;;;;;5050754;28;20033;-71
2023/12/03 01:48:47;;;;;;;1.58;0.40;;;34.30;47.10;;;;;;5052400;28;20025;-71
2023/12/03 01:51:15;;;;;;;0.85;0.40;;;34.60;44.70;;;;;;5053502;28;20078;-71
2023/12/03 01:53:43;;;;;;;2.00;0.40;;;34.40;42.40;;;;;;5050448;28;20037;-71
2023/12/03 01:56:13;;;;;;;0.65;0.20;;;33.80;43.90;;;;;;5050104;28;20017;-71
2023/12/03 01:58:40;;;;;;;1.75;0.63;;;33.30;43.60;;;;;;5051854;28;20089;-71
2023/12/03 02:01:08;;;;;;;0.95;0.35;;;33.30;45.40;;;;;;5048628;28;20075;-72
2023/12/03 02:03:36;;;;;;;2.35;0.40;;;34.00;46.60;;;;;;5054740;28;20048;-71
2023/12/03 02:06:10;;;;;;;1.60;0.50;;;34.50;43.60;;;;;;5046742;28;20491;-72
2023/12/03 02:08:38;;;;;;;0.98;0.32;;;34.80;44.90;;;;;;5055858;28;20025;-69
2023/12/03 02:11:07;;;;;;;1.50;0.40;;;34.20;44.50;;;;;;5045534;28;20470;-71
2023/12/03 02:13:37;;;;;;;5.13;0.77;;;33.90;44.20;;;;;;5045625;28;20511;-71
2023/12/03 02:16:05;;;;;;;1.98;0.55;;;33.50;45.40;;;;;;5049193;28;20025;-71
2023/12/03 02:18:36;;;;;;;1.05;0.50;;;34.10;47.90;;;;;;5044239;28;20508;-70
2023/12/03 02:21:03;;;;;;;1.88;0.40;;;34.60;45.20;;;;;;5049280;28;20017;-71
2023/12/03 02:23:32;;;;;;;2.67;0.45;;;34.70;44.60;;;;;;5049475;28;20025;-70
2023/12/03 02:26:00;;;;;;;3.08;0.70;;;34.40;43.70;;;;;;5043449;28;20017;-71
2023/12/03 02:28:27;;;;;;;1.08;0.43;;;34.80;45.70;;;;;;5051256;28;20435;-71
2023/12/03 02:30:55;;;;;;;2.10;0.40;;;35.20;44.40;;;;;;5053449;28;20057;-71
2023/12/03 02:33:22;;;;;;;2.60;0.50;;;35.20;40.70;;;;;;5046702;28;20478;-70
2023/12/03 02:35:50;;;;;;;1.52;0.40;;;34.10;40.80;;;;;;5053877;28;20481;-71
2023/12/03 02:38:17;;;;;;;2.80;0.45;;;34.10;44.40;;;;;;5045418;28;20025;-71
2023/12/03 02:40:44;;;;;;;1.05;0.38;;;34.60;43.40;;;;;;5055496;28;20024;-71
2023/12/03 02:43:12;;;;;;;4.47;0.50;;;34.90;43.00;;;;;;5054239;28;20063;-71
2023/12/03 02:45:39;;;;;;;3.83;0.68;;;35.20;43.60;;;;;;5052311;28;20009;-71
2023/12/03 02:48:07;;;;;;;2.13;0.68;;;34.60;45.20;;;;;;5049536;28;20021;-71
2023/12/03 02:50:34;;;;;;;1.67;0.70;;;33.50;49.40;;;;;;5052969;28;20485;-71
2023/12/03 02:53:01;;;;;;;0.88;0.40;;;32.70;50.90;;;;;;5053081;28;20470;-73
2023/12/03 02:55:29;;;;;;;14.43;1.13;;;32.30;51.90;;;;;;5046431;28;20026;-71
2023/12/03 02:57:56;;;;;;;5.18;0.90;;;31.50;52.70;;;;;;5052468;28;20135;-71
2023/12/03 03:00:23;;;;;;;2.88;0.75;;;30.70;52.80;;;;;;5048801;28;20045;-71
2023/12/03 03:02:52;;;;;;;2.80;0.73;;;30.80;54.10;;;;;;5043026;28;20021;-71
2023/12/03 03:05:19;;;;;;;3.42;0.60;;;30.70;54.10;;;;;;5056271;28;20478;-71
2023/12/03 03:07:47;;;;;;;2.05;0.50;;;30.50;53.60;;;;;;5042790;28;20027;-71
2023/12/03 03:10:14;;;;;;;2.30;0.68;;;30.60;54.10;;;;;;5048311;28;20108;-71
2023/12/03 03:12:41;;;;;;;0.68;0.50;;;30.90;54.00;;;;;;5051395;28;20349;-71
2023/12/03 03:15:09;;;;;;;2.22;0.73;;;30.70;53.40;;;;;;5057018;28;20025;-70
2023/12/03 03:17:37;;;;;;;3.60;0.75;;;30.90;54.40;;;;;;5052656;28;20939;-71
2023/12/03 03:20:04;;;;;;;3.20;0.60;;;31.30;53.40;;;;;;5049158;28;20036;-70
2023/12/03 03:22:32;;;;;;;2.25;0.70;;;31.40;53.70;;;;;;5051172;28;20086;-71
2023/12/03 03:25:00;;;;;;;4.07;0.40;;;31.60;54.10;;;;;;5053609;28;20028;-70
2023/12/03 03:27:27;;;;;;;0.63;0.30;;;31.60;53.80;;;;;;5050875;28;20111;-72
2023/12/03 03:29:55;;;;;;;4.20;0.40;;;31.30;54.90;;;;;;5050638;28;20068;-69
2023/12/03 03:32:22;;;;;;;2.08;0.50;;;31.60;56.40;;;;;;5051348;28;20366;-69
2023/12/03 03:34:50;;;;;;;1.30;0.25;;;31.70;54.00;;;;;;5053300;28;20492;-71
2023/12/03 03:37:17;;;;;;;1.45;0.30;;;31.70;52.90;;;;;;5046262;28;20045;-70
2023/12/03 03:39:44;;;;;;;0.85;0.20;;;31.60;55.60;;;;;;5043539;28;20033;-70
2023/12/03 03:42:12;;;;;;;1.17;0.38;;;31.70;54.90;;;;;;5044630;28;20637;-70
2023/12/03 03:44:39;;;;;;;3.00;0.45;;;31.80;55.70;;;;;;5049829;28;20050;-70
2023/12/03 03:47:07;;;;;;;2.38;0.57;;;31.80;53.90;;;;;;5051963;28;20451;-69
2023/12/03 03:49:34;;;;;;;1.20;0.50;;;31.30;54.60;;;;;;5043976;28;20033;-71
2023/12/03 03:52:02;;;;;;;1.80;0.50;;;31.00;54.70;;;;;;5047927;28;20246;-69
2023/12/03 03:54:30;;;;;;;4.03;0.30;;;31.10;55.80;;;;;;5046242;28;20021;-70
2023/12/03 03:56:57;;;;;;;1.25;0.50;;;31.10;56.00;;;;;;5053018;28;20025;-70
2023/12/03 03:59:26;;;;;;;5.22;0.57;;;31.10;56.70;;;;;;5044066;28;20507;-71
2023/12/03 04:01:53;;;;;;;1.35;0.30;;;31.10;56.80;;;;;;5041897;28;20026;-70
2023/12/03 04:04:20;;;;;;;0.65;0.30;;;31.00;56.20;;;;;;5044671;28;20027;-71
2023/12/03 04:06:47;;;;;;;2.55;0.40;;;31.00;57.50;;;;;;5047501;28;20024;-71
2023/12/03 04:09:15;;;;;;;0.95;0.40;;;31.20;55.80;;;;;;5043342;28;20052;-71
2023/12/03 04:11:44;;;;;;;1.80;0.30;;;31.30;56.40;;;;;;5050426;28;20029;-71
2023/12/03 04:14:16;;;;;;;1.75;0.40;;;30.80;57.40;;;;;;5057856;28;20094;-70
2023/12/03 04:16:44;;;;;;;2.58;0.47;;;30.00;58.20;;;;;;5047556;28;20024;-69
2023/12/03 04:19:14;;;;;;;3.78;0.65;;;29.40;59.50;;;;;;5053972;28;20032;-71
2023/12/03 04:21:41;;;;;;;2.33;0.30;;;28.80;61.50;;;;;;5059736;28;20040;-70
2023/12/03 04:24:09;;;;;;;2.63;0.60;;;28.50;62.30;;;;;;5054580;28;20033;-70
2023/12/03 04:26:36;;;;;;;1.90;0.50;;;28.20;63.60;;;;;;5051547;28;20047;-70
2023/12/03 04:29:04;;;;;;;3.78;0.60;;;28.00;64.70;;;;;;5059139;28;20025;-70
2023/12/03 04:31:31;;;;;;;5.38;0.70;;;27.80;65.50;;;;;;5056263;28;20381;-70
2023/12/03 04:33:58;;;;;;;5.47;1.00;;;27.70;66.50;;;;;;5053229;28;20120;-70
2023/12/03 04:36:27;;;;;;;3.28;0.70;;;27.50;67.50;;;;;;5056647;28;20037;-69
2023/12/03 04:38:55;;;;;;;6.03;0.85;;;27.50;68.90;;;;;;5051387;28;20044;-69
2023/12/03 04:41:22;;;;;;;5.45;0.63;;;27.50;69.70;;;;;;5061120;28;20020;-69
2023/12/03 04:43:50;;;;;;;5.57;0.90;;;27.50;70.80;;;;;;5055603;28;20086;-70
2023/12/03 04:46:17;;;;;;;4.25;0.90;;;27.80;70.60;;;;;;5055237;28;20025;-70
2023/12/03 04:48:44;;;;;;;9.05;0.93;;;28.10;71.00;;;;;;5052300;28;20071;-70
2023/12/03 04:51:15;;;;;;;6.90;0.82;;;28.10;70.70;;;;;;5049232;28;20181;-70
2023/12/03 04:53:42;;;;;;;8.02;0.88;;;27.90;71.10;;;;;;5053775;28;20028;-69
2023/12/03 04:56:10;;;;;;;4.50;0.63;;;27.70;72.00;;;;;;5057955;28;20028;-70
2023/12/03 04:58:37;;;;;;;4.60;0.73;;;27.50;71.10;;;;;;5054723;28;20498;-70
2023/12/03 05:01:05;;;;;;;4.78;0.60;;;27.40;71.60;;;;;;5056545;28;20111;-69
2023/12/03 05:03:32;;;;;;;4.97;0.50;;;27.10;72.20;;;;;;5057235;28;20465;-71
2023/12/03 05:06:00;;;;;;;5.80;0.60;;;26.90;72.40;;;;;;5055272;28;20082;-70
2023/12/03 05:08:27;;;;;;;1.42;0.57;;;26.80;72.50;;;;;;5049871;28;20021;-71
2023/12/03 05:10:54;;;;;;;2.67;0.60;;;27.10;73.00;;;;;;5055872;28;20040;-70
2023/12/03 05:13:22;;;;;;;5.03;0.80;;;27.20;74.20;;;;;;5051836;28;20234;-71
2023/12/03 05:15:49;;;;;;;5.45;0.70;;;27.60;75.00;;;;;;5053115;28;20024;-72
2023/12/03 05:18:16;;;;;;;4.47;0.52;;;27.60;75.70;;;;;;5049185;28;20043;-70
2023/12/03 05:20:44;;;;;;;3.65;0.68;;;27.40;75.60;;;;;;5057090;28;20478;-71
2023/12/03 05:23:12;;;;;;;2.35;0.80;;;27.60;74.80;;;;;;5048088;28;20060;-71
2023/12/03 05:25:39;;;;;;;6.05;1.02;;;27.80;72.40;;;;;;5048587;28;20025;-71
2023/12/03 05:28:07;;;;;;;7.18;1.25;;;28.00;72.90;;;;;;5045093;28;20029;-71
2023/12/03 05:30:34;;;;;;;3.58;0.73;;;28.20;72.80;;;;;;5045781;28;20443;-70
2023/12/03 05:33:01;;;;;;;4.90;0.70;;;28.30;72.20;;;;;;5053758;28;20093;-70
2023/12/03 05:35:29;;;;;;;5.75;0.90;;;28.20;72.20;;;;;;5047852;28;20017;-71
2023/12/03 05:37:57;;;;;;;3.83;1.00;;;27.80;74.00;;;;;;5051535;28;20133;-71
2023/12/03 05:40:24;;;;;;;3.13;0.60;;;27.60;73.90;;;;;;5048549;28;20033;-71
2023/12/03 05:42:52;;;;;;;5.68;0.93;;;27.60;74.10;;;;;;5052347;28;20286;-71
2023/12/03 05:45:19;;;;;;;6.22;1.23;;;27.40;74.00;;;;;;5051096;28;20401;-71
2023/12/03 05:47:47;;;;;;;4.38;0.90;;;27.30;75.10;;;;;;5041708;28;20033;-70
2023/12/03 05:50:14;;;;;;;3.60;0.85;;;27.40;74.50;;;;;;5043510;28;20352;-71
2023/12/03 05:52:42;;;;;;;6.38;0.98;;;27.40;74.60;;;;;;5051323;28;20028;-70
2023/12/03 05:55:10;;;;;;;2.58;0.50;;;27.60;73.60;;;;;;5049402;28;20025;-71
2023/12/03 05:57:38;;;;;;;4.00;0.60;;;27.70;72.90;;;;;;5052718;28;20030;-70
2023/12/03 06:00:06;;;;;;;2.60;0.70;;;27.50;72.30;;;;;;5060931;28;20037;-70
2023/12/03 06:02:37;;;;;;;1.55;0.50;;;27.10;72.70;;;;;;5050157;28;20074;-71
2023/12/03 06:05:04;;;;;;;1.38;0.40;;;26.90;74.30;;;;;;5050898;28;20443;-71
2023/12/03 06:07:35;;;;;;;1.98;0.50;;;26.90;73.30;;;;;;5051067;28;20424;-70
2023/12/03 06:10:03;;;;;;;5.13;0.88;;;26.80;74.60;;;;;;5046673;28;20036;-70
2023/12/03 06:12:31;;;;;;;2.65;0.50;;;26.90;75.50;;;;;;5043865;28;20404;-70
2023/12/03 06:14:58;;;;;;;6.88;0.75;;;27.00;73.70;;;;;;5046384;28;20060;-70
2023/12/03 06:17:26;;;;;;;4.15;0.68;;;27.00;73.40;;;;;;5050196;28;20106;-71
2023/12/03 06:19:54;;;;;;;2.90;0.30;;;26.90;74.00;;;;;;5055976;28;20084;-69
2023/12/03 06:22:21;;;;;;;1.67;0.50;;;26.80;73.80;;;;;;5049180;28;20330;-71
2023/12/03 06:24:48;;;;;;;2.53;0.60;;;26.80;74.70;;;;;;5054149;28;20053;-70
2023/12/03 06:27:16;;;;;;;2.50;0.45;;;26.80;74.40;;;;;;5054938;28;20040;-72
2023/12/03 06:29:46;;;;;;;6.43;1.15;;;26.70;75.30;;;;;;5053799;28;20044;-69
2023/12/03 06:32:14;;;;;;;6.80;0.68;;;26.70;76.40;;;;;;5050451;28;20028;-71
2023/12/03 06:34:41;;;;;;;7.00;0.93;;;26.40;78.30;;;;;;5053104;28;20416;-71
2023/12/03 06:37:09;;;;;;;4.07;0.90;;;26.40;78.90;;;;;;5047303;28;20660;-71
2023/12/03 06:39:37;;;;;;;5.13;0.90;;;26.40;79.20;;;;;;5045380;28;20036;-70
2023/12/03 06:42:05;;;;;;;5.03;0.95;;;26.30;79.60;;;;;;5046935;28;20823;-71
2023/12/03 06:44:33;;;;;;;5.22;1.05;;;25.80;81.30;;;;;;5047856;28;20024;-70
2023/12/03 06:47:00;;;;;;;5.78;1.40;;;25.40;83.70;;;;;;5054876;28;20024;-69
2023/12/03 06:49:28;;;;;;;4.10;0.80;;;25.30;84.40;;;;;;5045460;28;20029;-70
2023/12/03 06:51:55;;;;;;;4.18;1.00;;;25.20;85.20;;;;;;5051636;28;20346;-71
2023/12/03 06:54:22;;;;;;;6.20;1.10;;;25.10;85.80;;;;;;5055233;28;20065;-71
2023/12/03 06:56:50;;;;;;;10.88;1.60;;;25.00;86.50;;;;;;5047736;28;20025;-70
2023/12/03 06:59:17;;;;;;;5.45;1.10;;;24.80;87.70;;;;;;5047189;28;20056;-70
2023/12/03 07:01:45;;;;;;;5.90;1.00;;;24.70;88.50;;;;;;5043697;28;20026;-70
2023/12/03 07:04:13;;;;;;;3.45;0.75;;;24.80;89.10;;;;;;5047766;28;20297;-70
2023/12/03 07:06:41;;;;;;;4.90;1.08;;;24.80;88.70;;;;;;5050344;28;21033;-70
2023/12/03 07:09:11;;;;;;;7.95;1.10;;;24.70;89.00;;;;;;5042743;28;20036;-69
2023/12/03 07:11:39;;;;;;;9.48;1.00;;;24.50;89.90;;;;;;5041001;28;20063;-70
2023/12/03 07:14:06;;;;;;;4.65;1.00;;;24.40;90.30;;;;;;5043006;28;20032;-71
2023/12/03 07:16:33;;;;;;;5.20;1.05;;;24.30;90.90;;;;;;5044692;28;20067;-70
2023/12/03 07:19:01;;;;;;;3.92;0.93;;;24.30;91.00;;;;;;5044639;28;20072;-70
2023/12/03 07:21:28;;;;;;;6.63;1.10;;;24.10;91.40;;;;;;5037132;28;20055;-70
2023/12/03 07:23:55;;;;;;;5.00;1.23;;;24.10;91.90;;;;;;5046494;28;20029;-71
2023/12/03 07:26:23;;;;;;;7.07;1.42;;;24.00;92.40;;;;;;5043365;28;20036;-70
2023/12/03 07:28:54;;;;;;;3.42;1.15;;;24.00;92.30;;;;;;5051064;28;20030;-71
2023/12/03 07:31:21;;;;;;;3.92;0.98;;;24.00;92.10;;;;;;5064244;28;20044;-70
2023/12/03 07:33:49;;;;;;;5.20;1.58;;;23.90;92.40;;;;;;5052107;28;20037;-71
2023/12/03 07:36:16;;;;;;;3.00;0.60;;;23.80;92.30;;;;;;5045175;28;20033;-71
2023/12/03 07:38:47;;;;;;;4.47;1.00;;;23.70;92.40;;;;;;5052332;28;20040;-71
2023/12/03 07:41:14;;;;;;;6.68;0.98;;;23.70;92.80;;;;;;5055141;28;20495;-71
2023/12/03 07:43:42;;;;;;;9.00;1.92;;;23.60;93.00;;;;;;5056285;28;20103;-70
2023/12/03 07:46:16;;;;;;;6.28;1.30;;;23.60;92.70;;;;;;5069488;28;20147;-71
2023/12/03 07:48:43;;;;;;;4.03;1.08;;;23.40;93.10;;;;;;5056032;28;20032;-71
2023/12/03 07:51:11;;;;;;;5.03;0.77;;;23.30;93.60;;;;;;5055826;28;20048;-69
2023/12/03 07:53:41;;;;;;;9.20;1.10;;;23.30;93.60;;;;;;5049483;28;20031;-70
2023/12/03 07:56:09;;;;;;;6.57;1.00;;;23.20;93.50;;;;;;5060358;28;20148;-70
2023/12/03 07:58:37;;;;;;;6.43;0.80;;;23.20;93.70;;;;;;5055965;28;20363;-70
2023/12/03 08:01:05;;;;;;;6.95;1.10;;;23.20;93.60;;;;;;5048768;28;20479;-70
2023/12/03 08:03:32;;;;;;;5.68;0.68;;;23.20;93.70;;;;;;5057393;28;20048;-71
2023/12/03 08:06:00;;;;;;;4.53;0.65;;;23.10;93.70;;;;;;5054550;28;20032;-70
2023/12/03 08:08:30;;;;;;;1.30;0.40;;;23.10;93.80;;;;;;5056872;28;20025;-70
2023/12/03 08:10:57;;;;;;;5.03;1.00;;;23.00;93.90;;;;;;5053619;28;20028;-70
2023/12/03 08:13:28;;;;;;;6.03;1.00;;;23.00;94.20;;;;;;5052301;28;20055;-70
2023/12/03 08:15:55;;;;;;;4.43;0.70;;;23.00;94.20;;;;;;5048268;28;20044;-72
2023/12/03 08:18:23;;;;;;;5.22;1.48;;;23.00;94.00;;;;;;5055521;28;20389;-71
2023/12/03 08:20:50;;;;;;;6.20;0.80;;;23.00;93.80;;;;;;5048607;28;20037;-69
2023/12/03 08:23:17;;;;;;;8.32;1.50;;;23.00;93.90;;;;;;5053422;28;20024;-72
2023/12/03 08:25:45;;;;;;;4.00;1.10;;;22.80;93.90;;;;;;5056336;28;20476;-69
2023/12/03 08:28:12;;;;;;;4.88;0.82;;;22.70;94.50;;;;;;5044844;28;20044;-70
2023/12/03 08:30:40;;;;;;;7.40;1.70;;;22.60;95.40;;;;;;5051559;28;20047;-70
2023/12/03 08:33:07;;;;;;;9.57;1.50;;;22.60;96.50;;;;;;5049706;28;20029;-71
2023/12/03 08:35:35;;;;;;;8.65;1.50;;;22.50;97.90;;;;;;5045327;28;20104;-71
2023/12/03 08:38:02;;;;;;;7.90;1.63;;;22.30;98.70;;;;;;5046204;28;20040;-72
2023/12/03 08:40:29;;;;;;;8.60;1.88;;;22.10;99.00;;;;;;5049598;28;20048;-71
2023/12/03 08:42:57;;;;;;;6.95;1.88;;;22.00;99.60;;;;;;5048218;28;20548;-71
2023/12/03 08:45:24;;;;;;;7.65;1.45;;;21.90;99.90;;;;;;5043263;28;20378;-73
2023/12/03 08:47:52;;;;;;;9.70;1.45;;;21.70;99.90;;;;;;5047131;28;20040;-72
2023/12/03 08:50:19;;;;;;;12.27;1.23;;;21.30;99.90;;;;;;5048414;28;20420;-71
2023/12/03 08:52:47;;;;;;;7.68;0.98;;;21.00;99.90;;;;;;5041988;28;20044;-70
2023/12/03 08:55:14;;;;;;;6.97;1.23;;;20.90;99.90;;;;;;5045605;28;20100;-71
2023/12/03 08:57:42;;;;;;;8.63;1.10;;;20.90;99.90;;;;;;5045375;28;20104;-71
2023/12/03 09:00:10;;;;;;;7.63;1.48;;;21.00;99.90;;;;;;5040897;28;20045;-71
2023/12/03 09:02:37;;;;;;;7.25;1.33;;;21.00;99.90;;;;;;5066277;28;20021;-71
2023/12/03 09:05:08;;;;;;;5.72;0.85;;;21.00;99.90;;;;;;5047217;28;20029;-71
2023/12/03 09:07:40;;;;;;;5.45;1.10;;;21.10;99.90;;;;;;5044676;28;20033;-70
2023/12/03 09:10:11;;;;;;;9.60;2.00;;;21.20;99.90;;;;;;5047912;28;20025;-70
2023/12/03 09:12:39;;;;;;;14.65;3.20;;;21.20;99.90;;;;;;5047706;28;20021;-71
2023/12/03 09:15:06;;;;;;;12.45;3.10;;;21.10;99.90;;;;;;5044127;28;20075;-73
2023/12/03 09:17:34;;;;;;;11.55;3.15;;;21.00;99.90;;;;;;5048989;28;20071;-72
2023/12/03 09:20:01;;;;;;;11.27;1.08;;;21.10;99.90;;;;;;5051092;28;20072;-71
2023/12/03 09:22:29;;;;;;;6.15;1.42;;;21.10;99.90;;;;;;5049147;28;20118;-71
2023/12/03 09:24:56;;;;;;;10.93;1.80;;;21.10;99.90;;;;;;5034885;28;20035;-71
2023/12/03 09:27:24;;;;;;;4.05;1.08;;;21.00;99.90;;;;;;5052566;28;21224;-71
2023/12/03 09:29:53;;;;;;;10.07;2.83;;;21.20;99.90;;;;;;5049618;28;20033;-71
2023/12/03 09:32:22;;;;;;;10.77;2.97;;;21.40;99.90;;;;;;5051923;28;20028;-72
2023/12/03 09:34:49;;;;;;;5.20;1.38;;;21.10;99.90;;;;;;5052077;28;20378;-71
2023/12/03 09:37:17;;;;;;;8.45;1.48;;;21.00;99.90;;;;;;5054877;28;20031;-72
2023/12/03 09:39:44;;;;;;;4.60;0.77;;;20.90;99.90;;;;;;5050078;28;20091;-71
2023/12/03 09:42:18;;;;;;;2.67;0.90;;;21.00;99.90;;;;;;5051800;28;20111;-70
2023/12/03 09:44:51;;;;;;;6.97;1.10;;;21.00;99.90;;;;;;5051586;28;20645;-71
2023/12/03 09:47:27;;;;;;;5.20;0.88;;;21.10;99.90;;;;;;5048883;28;20498;-70
2023/12/03 09:49:58;;;;;;;7.43;1.00;;;21.10;99.90;;;;;;5039444;28;20100;-71
2023/12/03 09:52:29;;;;;;;5.32;1.02;;;21.10;99.90;;;;;;5053057;28;20375;-71
2023/12/03 09:54:58;;;;;;;7.68;1.02;;;21.20;99.90;;;;;;5045050;28;20033;-71
2023/12/03 09:57:30;;;;;;;5.68;0.90;;;21.00;99.90;;;;;;5049407;28;20043;-71
2023/12/03 10:00:08;;;;;;;5.47;0.90;;;20.90;99.90;;;;;;5051110;28;20051;-71
2023/12/03 10:02:36;;;;;;;4.20;0.90;;;20.90;99.90;;;;;;5050934;28;20025;-70
2023/12/03 10:05:03;;;;;;;4.60;0.98;;;20.90;99.90;;;;;;5036991;28;20038;-71
2023/12/03 10:07:31;;;;;;;6.97;1.20;;;20.90;99.90;;;;;;5051169;28;20120;-71
2023/12/03 10:10:00;;;;;;;7.95;1.00;;;20.90;99.90;;;;;;5050763;28;20037;-72
2023/12/03 10:12:40;;;;;;;6.45;1.23;;;20.90;99.90;;;;;;5046744;28;20075;-71
2023/12/03 10:15:11;;;;;;;5.47;0.88;;;20.90;99.90;;;;;;5055792;28;20028;-71
2023/12/03 10:17:39;;;;;;;5.43;1.05;;;20.90;99.90;;;;;;5048736;28;20028;-70
2023/12/03 10:20:29;;;;;;;6.32;1.20;;;20.90;99.90;;;;;;5048792;28;20552;-70
2023/12/03 10:23:02;;;;;;;6.60;0.63;;;20.80;99.90;;;;;;5054231;28;20028;-71
2023/12/03 10:25:36;;;;;;;3.63;0.82;;;20.80;99.90;;;;;;5046895;28;20126;-72
2023/12/03 10:28:09;;;;;;;2.75;0.93;;;20.80;99.90;;;;;;5043853;28;20044;-71
2023/12/03 10:30:37;;;;;;;7.35;0.98;;;20.70;99.90;;;;;;5050586;28;20058;-71
2023/12/03 10:33:06;;;;;;;4.13;0.70;;;20.80;99.90;;;;;;5047159;28;20028;-71
2023/12/03 10:35:36;;;;;;;3.55;0.68;;;20.80;99.90;;;;;;5044253;28;20466;-71
2023/12/03 10:38:09;;;;;;;8.45;0.73;;;20.80;99.90;;;;;;5045611;28;20029;-72
2023/12/03 10:40:37;;;;;;;2.95;0.95;;;20.80;99.90;;;;;;5038515;28;20076;-70
2023/12/03 10:43:05;;;;;;;4.00;0.82;;;20.80;99.90;;;;;;5045627;28;20028;-71
2023/12/03 10:45:33;;;;;;;5.32;0.98;;;20.70;99.90;;;;;;5052763;28;20040;-71
2023/12/03 10:48:05;;;;;;;7.03;0.90;;;20.70;99.90;;;;;;5043555;28;20043;-70
2023/12/03 10:50:33;;;;;;;3.05;0.57;;;20.60;99.90;;;;;;5055268;28;20021;-70
2023/12/03 10:53:00;;;;;;;6.47;1.10;;;20.50;99.90;;;;;;5044741;28;20037;-71
2023/12/03 10:55:28;;;;;;;6.95;0.63;;;20.50;99.90;;;;;;5045854;28;20029;-70
2023/12/03 10:58:05;;;;;;;3.60;0.50;;;20.40;99.90;;;;;;5050692;28;20088;-70
2023/12/03 11:00:59;;;;;;;5.97;0.60;;;20.50;99.90;;;;;;5039418;28;20449;-70
2023/12/03 11:03:54;;;;;;;7.20;0.52;;;20.70;99.90;;;;;;5056656;28;20024;-71
2023/12/03 11:06:24;;;;;;;4.70;0.73;;;20.60;99.90;;;;;;5050135;28;20029;-70
2023/12/03 11:08:53;;;;;;;3.03;0.55;;;20.50;99.90;;;;;;5045428;28;20063;-70
2023/12/03 11:11:22;;;;;;;9.70;1.65;;;20.40;99.90;;;;;;5051924;28;20073;-70
2023/12/03 11:13:56;;;;;;;7.35;1.38;;;20.40;99.90;;;;;;5045261;28;20424;-69
2023/12/03 11:16:27;;;;;;;8.18;0.75;;;20.40;99.90;;;;;;5054761;28;20013;-71
2023/12/03 11:19:01;;;;;;;2.15;0.55;;;20.40;99.90;;;;;;5051561;28;20490;-71
2023/12/03 11:21:42;;;;;;;4.97;0.93;;;20.40;99.90;;;;;;5056709;28;20025;-72
2023/12/03 11:24:39;;;;;;;2.85;0.70;;;20.50;99.90;;;;;;5053937;28;20033;-71
2023/12/03 11:27:09;;;;;;;3.65;0.57;;;20.60;99.90;;;;;;5054344;28;20025;-70
2023/12/03 11:29:51;;;;;;;5.85;0.52;;;20.60;99.90;;;;;;5051393;28;20039;-72
2023/12/03 11:32:20;;;;;;;7.05;1.45;;;20.50;99.90;;;;;;5056004;28;20478;-72
2023/12/03 11:35:15;;;;;;;5.70;0.75;;;20.40;99.90;;;;;;5053793;28;20095;-71
2023/12/03 11:37:43;;;;;;;6.97;0.90;;;20.30;99.90;;;;;;5050261;28;20115;-71
2023/12/03 11:40:13;;;;;;;4.47;0.75;;;20.30;99.90;;;;;;5058274;28;20402;-71
2023/12/03 11:42:44;;;;;;;6.22;0.75;;;20.30;99.90;;;;;;5049352;28;20037;-71
2023/12/03 11:45:29;;;;;;;4.70;0.75;;;20.30;99.90;;;;;;5054229;28;20028;-72
2023/12/03 11:48:09;;;;;;;6.82;1.00;;;20.30;99.90;;;;;;5054227;28;20150;-70
2023/12/03 11:50:37;;;;;;;5.22;1.15;;;20.30;99.90;;;;;;5050897;28;20025;-70
2023/12/03 11:53:08;;;;;;;2.88;0.63;;;20.50;99.90;;;;;;5052902;28;20048;-70
2023/12/03 11:55:37;;;;;;;8.50;0.80;;;20.40;99.90;;;;;;5049635;28;20532;-70
2023/12/03 11:58:05;;;;;;;4.63;0.88;;;20.30;99.90;;;;;;5048631;28;20069;-72
2023/12/03 12:00:33;;;;;;;2.33;0.70;;;20.30;99.90;;;;;;5048708;28;20072;-70
2023/12/03 12:03:05;;;;;;;5.28;1.00;;;20.30;99.90;;;;;;5050136;28;20082;-70
2023/12/03 12:05:33;;;;;;;4.82;1.35;;;20.20;99.90;;;;;;5047815;28;20041;-71
2023/12/03 12:08:04;;;;;;;5.70;0.90;;;20.20;99.90;;;;;;5049352;28;20475;-71
2023/12/03 12:10:33;;;;;;;4.22;0.80;;;20.20;99.90;;;;;;5053298;28;20025;-70
2023/12/03 12:13:02;;;;;;;3.38;1.00;;;20.10;99.90;;;;;;5043850;28;20104;-70
2023/12/03 12:15:30;;;;;;;2.92;0.70;;;20.10;99.90;;;;;;5048515;28;20028;-70
2023/12/03 12:17:57;;;;;;;5.43;1.00;;;20.00;99.90;;;;;;5041988;28;20386;-70
2023/12/03 12:20:29;;;;;;;0.98;0.57;;;20.00;99.90;;;;;;5046717;28;20065;-70
2023/12/03 12:22:58;;;;;;;3.60;1.00;;;20.10;99.90;;;;;;5045806;28;20103;-70
2023/12/03 12:25:29;;;;;;;3.63;0.85;;;20.10;99.90;;;;;;5040412;28;20030;-70
2023/12/03 12:27:57;;;;;;;2.70;0.80;;;20.00;99.90;;;;;;5046824;28;20021;-69
2023/12/03 12:30:37;;;;;;;4.22;0.68;;;20.10;99.90;;;;;;5051866;28;20367;-70
2023/12/03 12:33:06;;;;;;;2.47;0.70;;;20.20;99.90;;;;;;5047485;28;20060;-70
2023/12/03 12:35:33;;;;;;;3.88;0.80;;;20.10;99.90;;;;;;5047676;28;20543;-71
2023/12/03 12:38:05;;;;;;;1.08;0.50;;;20.10;99.90;;;;;;5051774;28;20135;-70
2023/12/03 12:40:38;;;;;;;5.85;0.80;;;20.10;99.90;;;;;;5048389;28;20072;-70
2023/12/03 12:43:13;;;;;;;2.35;0.63;;;20.00;99.90;;;;;;5048943;28;20021;-70
2023/12/03 12:45:41;;;;;;;3.03;0.75;;;19.90;99.90;;;;;;5055824;28;20039;-69
2023/12/03 12:48:24;;;;;;;5.22;0.63;;;19.80;99.90;;;;;;5049377;28;20025;-71
2023/12/03 12:50:51;;;;;;;4.40;0.65;;;19.80;99.90;;;;;;5054352;28;20037;-70
2023/12/03 12:53:20;;;;;;;2.40;0.70;;;19.80;99.90;;;;;;5048053;28;20462;-71